地図

経路データ

SID SEASON NUMBER BASIN SUBBASIN NAME ISO_TIME NATURE LAT LON WMO_WIND WMO_PRES WMO_AGENCY TRACK_TYPE DIST2LAND LANDFALL IFLAG USA_AGENCY USA_ATCF_ID USA_LAT USA_LON USA_RECORD USA_STATUS USA_WIND USA_PRES USA_SSHS USA_R34_NE USA_R34_SE USA_R34_SW USA_R34_NW USA_R50_NE USA_R50_SE USA_R50_SW USA_R50_NW USA_R64_NE USA_R64_SE USA_R64_SW USA_R64_NW USA_POCI USA_ROCI USA_RMW USA_EYE TOKYO_LAT TOKYO_LON TOKYO_GRADE TOKYO_WIND TOKYO_PRES TOKYO_R50_DIR TOKYO_R50_LONG TOKYO_R50_SHORT TOKYO_R30_DIR TOKYO_R30_LONG TOKYO_R30_SHORT TOKYO_LAND CMA_LAT CMA_LON CMA_CAT CMA_WIND CMA_PRES HKO_LAT HKO_LON HKO_CAT HKO_WIND HKO_PRES NEWDELHI_LAT NEWDELHI_LON NEWDELHI_GRADE NEWDELHI_WIND NEWDELHI_PRES NEWDELHI_CI NEWDELHI_DP NEWDELHI_POCI REUNION_LAT REUNION_LON REUNION_TYPE REUNION_WIND REUNION_PRES REUNION_TNUM REUNION_CI REUNION_RMW REUNION_R34_NE REUNION_R34_SE REUNION_R34_SW REUNION_R34_NW REUNION_R50_NE REUNION_R50_SE REUNION_R50_SW REUNION_R50_NW REUNION_R64_NE REUNION_R64_SE REUNION_R64_SW REUNION_R64_NW BOM_LAT BOM_LON BOM_TYPE BOM_WIND BOM_PRES BOM_TNUM BOM_CI BOM_RMW BOM_R34_NE BOM_R34_SE BOM_R34_SW BOM_R34_NW BOM_R50_NE BOM_R50_SE BOM_R50_SW BOM_R50_NW BOM_R64_NE BOM_R64_SE BOM_R64_SW BOM_R64_NW BOM_ROCI BOM_POCI BOM_EYE BOM_POS_METHOD BOM_PRES_METHOD NADI_LAT NADI_LON NADI_CAT NADI_WIND NADI_PRES WELLINGTON_LAT WELLINGTON_LON WELLINGTON_WIND WELLINGTON_PRES DS824_LAT DS824_LON DS824_STAGE DS824_WIND DS824_PRES TD9636_LAT TD9636_LON TD9636_STAGE TD9636_WIND TD9636_PRES TD9635_LAT TD9635_LON TD9635_WIND TD9635_PRES TD9635_ROCI NEUMANN_LAT NEUMANN_LON NEUMANN_CLASS NEUMANN_WIND NEUMANN_PRES MLC_LAT MLC_LON MLC_CLASS MLC_WIND MLC_PRES USA_GUST BOM_GUST BOM_GUST_PER REUNION_GUST REUNION_GUST_PER USA_SEAHGT USA_SEARAD_NE USA_SEARAD_SE USA_SEARAD_SW USA_SEARAD_NW STORM_SPEED STORM_DIR
1946289N12085 1946 61 NI BB NOT_NAMED 1946-10-15 18:00:00 TS 12.2000 85.2000 main 544 533 O________O____ jtwc_io IO111946 12.2000 85.2000 -1 12.2000 85.2000 TC 3 290
1946289N12085 1946 61 NI BB NOT_NAMED 1946-10-15 21:00:00 TS 12.2525 85.0550 main 532 511 P________P____ IO111946 12.2525 85.0550 -1 12.2525 85.0550 TC 3 289
1946289N12085 1946 61 NI BB NOT_NAMED 1946-10-16 00:00:00 TS 12.3000 84.9000 main 511 489 O________O____ jtwc_io IO111946 12.3000 84.9000 -1 12.3000 84.9000 TC 25 3 286
1946289N12085 1946 61 NI BB NOT_NAMED 1946-10-16 03:00:00 TS 12.3489 84.7200 main 489 466 P________PO___ IO111946 12.3425 84.7225 -1 12.3425 84.7225 TC 25 12.4000 84.7000 1 4 285
1946289N12085 1946 61 NI BB NOT_NAMED 1946-10-16 06:00:00 TS 12.4101 84.4812 main 466 432 O________OP___ jtwc_io IO111946 12.4000 84.5000 -1 12.4000 84.5000 TC 25 12.4503 84.4061 1 5 284
1946289N12085 1946 61 NI BB NOT_NAMED 1946-10-16 09:00:00 TS 12.4837 84.1835 main 432 398 P________PP___ IO111946 12.4700 84.2075 -1 12.4700 84.2075 TC 25 12.5203 84.1198 1 6 289
1946289N12085 1946 61 NI BB NOT_NAMED 1946-10-16 12:00:00 TS 12.6101 83.8829 main 398 362 O________OP___ jtwc_io IO111946 12.6000 83.9000 -1 12.6000 83.9000 TC 25 12.6302 83.8485 1 6 301
1946289N12085 1946 61 NI BB NOT_NAMED 1946-10-16 15:00:00 TS 12.8133 83.6184 main 362 336 P________PO___ IO111946 12.8200 83.6275 -1 12.8200 83.6275 TC 25 12.8000 83.6000 1 7 315
1946289N12085 1946 61 NI BB NOT_NAMED 1946-10-16 18:00:00 TS 13.0808 83.3939 main 336 313 O________OP___ jtwc_io IO111946 13.1000 83.4000 -1 13.1000 83.4000 TC 25 13.0424 83.3818 1 7 325
1946289N12085 1946 61 NI BB NOT_NAMED 1946-10-16 21:00:00 TS 13.3750 83.2143 main 313 302 P________PP___ IO111946 13.3925 83.2200 -1 13.3925 83.2200 TC 25 13.3399 83.2029 1 7 334
1946289N12085 1946 61 NI BB NOT_NAMED 1946-10-17 00:00:00 TS 13.6892 83.0908 main 302 291 O________OP___ jtwc_io IO111946 13.7000 83.1000 -1 13.7000 83.1000 TC 25 13.6675 83.0725 1 7 343
1946289N12085 1946 61 NI BB NOT_NAMED 1946-10-17 03:00:00 TS 14.0000 83.0133 main 292 263 P________PO___ IO111946 14.0000 83.0200 -1 14.0000 83.0200 TC 25 14.0000 83.0000 1 6 351
1946289N12085 1946 61 NI BB NOT_NAMED 1946-10-17 06:00:00 TS 14.3054 82.9893 main 263 233 O________OP___ jtwc_io IO111946 14.3000 83.0000 -1 14.3000 83.0000 TC 25 14.3161 82.9680 1 6 2
1946289N12085 1946 61 NI BB NOT_NAMED 1946-10-17 09:00:00 TS 14.6099 83.0166 main 233 208 P________PP___ IO111946 14.6000 83.0275 -1 14.6000 83.0275 TC 25 14.6298 82.9948 1 6 9
1946289N12085 1946 61 NI BB NOT_NAMED 1946-10-17 12:00:00 TS 14.9095 83.0914 main 208 183 O________OP___ jtwc_io IO111946 14.9000 83.1000 -1 14.9000 83.1000 TC 25 14.9286 83.0743 1 6 15
1946289N12085 1946 61 NI BB NOT_NAMED 1946-10-17 15:00:00 TS 15.2150 83.1850 main 183 163 P________PO___ IO111946 15.2225 83.1775 -1 15.2225 83.1775 TC 25 15.2000 83.2000 1 6 22
1946289N12085 1946 61 NI BB NOT_NAMED 1946-10-17 18:00:00 TS 15.4741 83.3260 main 163 162 O________OP___ jtwc_io IO111946 15.5000 83.3000 -1 15.5000 83.3000 TC 25 15.4352 83.3649 1 6 35
1946289N12085 1946 61 NI BB NOT_NAMED 1946-10-17 21:00:00 TS 15.6630 83.5156 main 163 163 P________PP___ IO111946 15.6801 83.4825 -1 15.6801 83.4825 TC 25 15.6403 83.5598 1 5 49
1946289N12085 1946 61 NI BB NOT_NAMED 1946-10-18 00:00:00 TS 15.8126 83.7374 main 174 174 O________OP___ jtwc_io IO111946 15.8000 83.7000 -1 15.8000 83.7000 TC 25 15.8252 83.7748 1 6 54
1946289N12085 1946 61 NI BB NOT_NAMED 1946-10-18 03:00:00 NR 16.0000 84.0000 main 192 __________O___ IO111946 -1 TC 16.0000 84.0000 1 6 53

IBTrACS Databaseについて

本データベースは、米国NOAAが公開する1842年以降の世界の熱帯低気圧のベストトラックデータアーカイブInternational Best Track Archive for Climate Stewardship (IBTrACS)を、ウェブで閲覧しやすい形式に変換したものです。

最終更新日:2021-10-21